sensor_id;sensor_type;location;lat;lon;timestamp;temperature;humidity
34766;DHT22;20984;43.508;1.504;2023-07-31T00:02:03;18.70;99.90
34766;DHT22;20984;43.508;1.504;2023-07-31T00:04:29;18.70;99.90
34766;DHT22;20984;43.508;1.504;2023-07-31T00:06:55;18.70;99.90
34766;DHT22;20984;43.508;1.504;2023-07-31T00:09:20;18.70;99.90
34766;DHT22;20984;43.508;1.504;2023-07-31T00:11:46;18.70;99.90
34766;DHT22;20984;43.508;1.504;2023-07-31T00:14:12;18.60;99.90
34766;DHT22;20984;43.508;1.504;2023-07-31T00:16:37;18.60;99.90
34766;DHT22;20984;43.508;1.504;2023-07-31T00:19:03;18.50;99.90
34766;DHT22;20984;43.508;1.504;2023-07-31T00:21:29;18.60;99.90
34766;DHT22;20984;43.508;1.504;2023-07-31T00:23:54;18.50;99.90
34766;DHT22;20984;43.508;1.504;2023-07-31T00:26:20;18.60;99.90
34766;DHT22;20984;43.508;1.504;2023-07-31T00:28:45;18.50;99.90
34766;DHT22;20984;43.508;1.504;2023-07-31T00:31:11;18.50;99.90
34766;DHT22;20984;43.508;1.504;2023-07-31T00:33:38;18.50;99.90
34766;DHT22;20984;43.508;1.504;2023-07-31T00:36:03;18.50;99.90
34766;DHT22;20984;43.508;1.504;2023-07-31T00:38:29;18.50;99.90
34766;DHT22;20984;43.508;1.504;2023-07-31T00:40:55;18.40;99.90
34766;DHT22;20984;43.508;1.504;2023-07-31T00:43:20;18.40;99.90
34766;DHT22;20984;43.508;1.504;2023-07-31T00:45:46;18.40;99.90
34766;DHT22;20984;43.508;1.504;2023-07-31T00:48:12;18.40;99.90
34766;DHT22;20984;43.508;1.504;2023-07-31T00:50:37;18.40;99.90
34766;DHT22;20984;43.508;1.504;2023-07-31T00:53:04;18.40;99.90
34766;DHT22;20984;43.508;1.504;2023-07-31T00:55:30;18.40;99.90
34766;DHT22;20984;43.508;1.504;2023-07-31T00:57:56;18.40;99.90
34766;DHT22;20984;43.508;1.504;2023-07-31T01:00:22;18.40;99.90
34766;DHT22;20984;43.508;1.504;2023-07-31T01:02:51;18.40;99.90
34766;DHT22;20984;43.508;1.504;2023-07-31T01:05:28;18.30;99.90
34766;DHT22;20984;43.508;1.504;2023-07-31T01:10:56;18.30;99.90
34766;DHT22;20984;43.508;1.504;2023-07-31T01:13:25;18.30;99.90
34766;DHT22;20984;43.508;1.504;2023-07-31T01:15:52;18.30;99.90
34766;DHT22;20984;43.508;1.504;2023-07-31T01:18:17;18.20;99.90
34766;DHT22;20984;43.508;1.504;2023-07-31T01:20:48;18.20;99.90
34766;DHT22;20984;43.508;1.504;2023-07-31T01:23:42;18.20;99.90
34766;DHT22;20984;43.508;1.504;2023-07-31T01:26:20;18.10;99.90
34766;DHT22;20984;43.508;1.504;2023-07-31T01:29:54;18.10;99.90
34766;DHT22;20984;43.508;1.504;2023-07-31T01:31:48;18.10;99.90
34766;DHT22;20984;43.508;1.504;2023-07-31T01:34:17;18.10;99.90
34766;DHT22;20984;43.508;1.504;2023-07-31T01:36:43;18.10;99.90
34766;DHT22;20984;43.508;1.504;2023-07-31T01:39:09;18.00;99.90
34766;DHT22;20984;43.508;1.504;2023-07-31T01:41:35;18.10;99.90
34766;DHT22;20984;43.508;1.504;2023-07-31T01:44:00;18.00;99.90
34766;DHT22;20984;43.508;1.504;2023-07-31T01:46:26;18.00;99.90
34766;DHT22;20984;43.508;1.504;2023-07-31T01:48:52;17.90;99.90
34766;DHT22;20984;43.508;1.504;2023-07-31T01:51:17;17.90;99.90
34766;DHT22;20984;43.508;1.504;2023-07-31T01:53:43;17.90;99.90
34766;DHT22;20984;43.508;1.504;2023-07-31T01:56:09;17.80;99.90
34766;DHT22;20984;43.508;1.504;2023-07-31T01:58:34;17.80;99.90
34766;DHT22;20984;43.508;1.504;2023-07-31T02:01:00;17.80;99.90
34766;DHT22;20984;43.508;1.504;2023-07-31T02:03:25;17.80;99.90
34766;DHT22;20984;43.508;1.504;2023-07-31T02:05:51;17.70;99.90
34766;DHT22;20984;43.508;1.504;2023-07-31T02:08:17;17.70;99.90
34766;DHT22;20984;43.508;1.504;2023-07-31T02:10:42;17.60;99.90
34766;DHT22;20984;43.508;1.504;2023-07-31T02:13:08;17.60;99.90
34766;DHT22;20984;43.508;1.504;2023-07-31T02:15:34;17.60;99.90
34766;DHT22;20984;43.508;1.504;2023-07-31T02:18:00;17.60;99.90
34766;DHT22;20984;43.508;1.504;2023-07-31T02:20:25;17.60;99.90
34766;DHT22;20984;43.508;1.504;2023-07-31T02:22:51;17.50;99.90
34766;DHT22;20984;43.508;1.504;2023-07-31T02:25:17;17.50;99.90
34766;DHT22;20984;43.508;1.504;2023-07-31T02:27:42;17.40;99.90
34766;DHT22;20984;43.508;1.504;2023-07-31T02:30:08;17.40;99.90
34766;DHT22;20984;43.508;1.504;2023-07-31T02:32:34;17.40;99.90
34766;DHT22;20984;43.508;1.504;2023-07-31T02:35:00;17.30;99.90
34766;DHT22;20984;43.508;1.504;2023-07-31T02:37:26;17.30;99.90
34766;DHT22;20984;43.508;1.504;2023-07-31T02:39:51;17.20;99.90
34766;DHT22;20984;43.508;1.504;2023-07-31T02:42:17;17.20;99.90
34766;DHT22;20984;43.508;1.504;2023-07-31T02:44:43;17.20;99.90
34766;DHT22;20984;43.508;1.504;2023-07-31T02:47:08;17.10;99.90
34766;DHT22;20984;43.508;1.504;2023-07-31T02:49:34;17.10;99.90
34766;DHT22;20984;43.508;1.504;2023-07-31T02:52:00;17.10;99.90
34766;DHT22;20984;43.508;1.504;2023-07-31T02:54:25;17.10;99.90
34766;DHT22;20984;43.508;1.504;2023-07-31T02:56:51;17.10;99.90
34766;DHT22;20984;43.508;1.504;2023-07-31T02:59:17;17.10;99.90
34766;DHT22;20984;43.508;1.504;2023-07-31T03:01:43;17.00;99.90
34766;DHT22;20984;43.508;1.504;2023-07-31T03:04:09;17.10;99.90
34766;DHT22;20984;43.508;1.504;2023-07-31T03:06:35;17.10;99.90
34766;DHT22;20984;43.508;1.504;2023-07-31T03:09:00;17.10;99.90
34766;DHT22;20984;43.508;1.504;2023-07-31T03:11:26;17.10;99.90
34766;DHT22;20984;43.508;1.504;2023-07-31T03:13:52;17.00;99.90
34766;DHT22;20984;43.508;1.504;2023-07-31T03:16:17;16.90;99.90
34766;DHT22;20984;43.508;1.504;2023-07-31T03:18:43;16.90;99.90
34766;DHT22;20984;43.508;1.504;2023-07-31T03:21:08;16.80;99.90
34766;DHT22;20984;43.508;1.504;2023-07-31T03:23:34;16.70;99.90
34766;DHT22;20984;43.508;1.504;2023-07-31T03:26:01;16.70;99.90
34766;DHT22;20984;43.508;1.504;2023-07-31T03:28:29;16.60;99.90
34766;DHT22;20984;43.508;1.504;2023-07-31T03:30:55;16.60;99.90
34766;DHT22;20984;43.508;1.504;2023-07-31T03:33:20;16.60;99.90
34766;DHT22;20984;43.508;1.504;2023-07-31T03:35:46;16.60;99.90
34766;DHT22;20984;43.508;1.504;2023-07-31T03:38:12;16.60;99.90
34766;DHT22;20984;43.508;1.504;2023-07-31T03:40:37;16.60;99.90
34766;DHT22;20984;43.508;1.504;2023-07-31T03:43:04;16.60;99.90
34766;DHT22;20984;43.508;1.504;2023-07-31T03:45:30;16.60;99.90
34766;DHT22;20984;43.508;1.504;2023-07-31T03:47:56;16.50;99.90
34766;DHT22;20984;43.508;1.504;2023-07-31T03:50:21;16.50;99.90
34766;DHT22;20984;43.508;1.504;2023-07-31T03:52:47;16.60;99.90
34766;DHT22;20984;43.508;1.504;2023-07-31T03:55:13;16.60;99.90
34766;DHT22;20984;43.508;1.504;2023-07-31T03:57:38;16.60;99.90
34766;DHT22;20984;43.508;1.504;2023-07-31T04:00:04;16.60;99.90
34766;DHT22;20984;43.508;1.504;2023-07-31T04:02:30;16.60;99.90
34766;DHT22;20984;43.508;1.504;2023-07-31T04:04:56;16.60;99.90
34766;DHT22;20984;43.508;1.504;2023-07-31T04:07:21;16.50;99.90
34766;DHT22;20984;43.508;1.504;2023-07-31T04:09:47;16.50;99.90
34766;DHT22;20984;43.508;1.504;2023-07-31T04:12:13;16.50;99.90
34766;DHT22;20984;43.508;1.504;2023-07-31T04:14:38;16.50;99.90
34766;DHT22;20984;43.508;1.504;2023-07-31T04:17:04;16.50;99.90
34766;DHT22;20984;43.508;1.504;2023-07-31T04:19:29;16.50;99.90
34766;DHT22;20984;43.508;1.504;2023-07-31T04:21:55;16.40;99.90
34766;DHT22;20984;43.508;1.504;2023-07-31T04:24:21;16.40;99.90
34766;DHT22;20984;43.508;1.504;2023-07-31T04:26:53;16.40;99.90
34766;DHT22;20984;43.508;1.504;2023-07-31T04:29:19;16.30;99.90
34766;DHT22;20984;43.508;1.504;2023-07-31T04:31:45;16.30;99.90
34766;DHT22;20984;43.508;1.504;2023-07-31T04:34:10;16.30;99.90
34766;DHT22;20984;43.508;1.504;2023-07-31T04:36:37;16.30;99.90
34766;DHT22;20984;43.508;1.504;2023-07-31T04:39:03;16.30;99.90
34766;DHT22;20984;43.508;1.504;2023-07-31T04:41:29;16.30;99.90
34766;DHT22;20984;43.508;1.504;2023-07-31T04:43:55;16.30;99.90
34766;DHT22;20984;43.508;1.504;2023-07-31T04:46:20;16.30;99.90
34766;DHT22;20984;43.508;1.504;2023-07-31T04:48:46;16.30;99.90
34766;DHT22;20984;43.508;1.504;2023-07-31T04:51:12;16.20;99.90
34766;DHT22;20984;43.508;1.504;2023-07-31T04:53:37;16.30;99.90
34766;DHT22;20984;43.508;1.504;2023-07-31T04:56:03;16.30;99.90
34766;DHT22;20984;43.508;1.504;2023-07-31T04:58:29;16.30;99.90
34766;DHT22;20984;43.508;1.504;2023-07-31T05:00:54;16.30;99.90
34766;DHT22;20984;43.508;1.504;2023-07-31T05:03:20;16.30;99.90
34766;DHT22;20984;43.508;1.504;2023-07-31T05:05:46;16.40;99.90
34766;DHT22;20984;43.508;1.504;2023-07-31T05:08:11;16.40;99.90
34766;DHT22;20984;43.508;1.504;2023-07-31T05:10:37;16.40;99.90
34766;DHT22;20984;43.508;1.504;2023-07-31T05:13:03;16.40;99.90
34766;DHT22;20984;43.508;1.504;2023-07-31T05:15:29;16.50;99.90
34766;DHT22;20984;43.508;1.504;2023-07-31T05:17:54;16.50;99.90
34766;DHT22;20984;43.508;1.504;2023-07-31T05:20:20;16.50;99.90
34766;DHT22;20984;43.508;1.504;2023-07-31T05:22:46;16.50;99.90
34766;DHT22;20984;43.508;1.504;2023-07-31T05:25:12;16.60;99.90
34766;DHT22;20984;43.508;1.504;2023-07-31T05:27:38;16.60;99.90
34766;DHT22;20984;43.508;1.504;2023-07-31T05:30:05;16.60;99.90
34766;DHT22;20984;43.508;1.504;2023-07-31T05:32:31;16.70;99.90
34766;DHT22;20984;43.508;1.504;2023-07-31T05:34:56;16.80;99.90
34766;DHT22;20984;43.508;1.504;2023-07-31T05:37:22;16.80;99.90
34766;DHT22;20984;43.508;1.504;2023-07-31T05:39:48;16.80;99.90
34766;DHT22;20984;43.508;1.504;2023-07-31T05:42:13;16.80;99.90
34766;DHT22;20984;43.508;1.504;2023-07-31T05:44:39;16.80;99.90
34766;DHT22;20984;43.508;1.504;2023-07-31T05:47:05;16.90;99.90
34766;DHT22;20984;43.508;1.504;2023-07-31T05:49:30;17.00;99.90
34766;DHT22;20984;43.508;1.504;2023-07-31T05:51:56;17.00;99.90
34766;DHT22;20984;43.508;1.504;2023-07-31T05:54:22;17.10;99.90
34766;DHT22;20984;43.508;1.504;2023-07-31T05:56:47;17.20;99.90
34766;DHT22;20984;43.508;1.504;2023-07-31T05:59:13;17.30;99.90
34766;DHT22;20984;43.508;1.504;2023-07-31T06:01:39;17.40;99.90
34766;DHT22;20984;43.508;1.504;2023-07-31T06:04:05;17.40;99.90
34766;DHT22;20984;43.508;1.504;2023-07-31T06:06:31;17.50;99.90
34766;DHT22;20984;43.508;1.504;2023-07-31T06:08:56;17.60;99.90
34766;DHT22;20984;43.508;1.504;2023-07-31T06:11:22;17.70;99.90
34766;DHT22;20984;43.508;1.504;2023-07-31T06:13:48;17.70;99.90
34766;DHT22;20984;43.508;1.504;2023-07-31T06:16:15;17.80;99.90
34766;DHT22;20984;43.508;1.504;2023-07-31T06:18:42;17.80;99.90
34766;DHT22;20984;43.508;1.504;2023-07-31T06:21:09;17.90;99.90
34766;DHT22;20984;43.508;1.504;2023-07-31T06:23:35;18.00;99.90
34766;DHT22;20984;43.508;1.504;2023-07-31T06:26:01;18.00;99.90
34766;DHT22;20984;43.508;1.504;2023-07-31T06:28:31;18.00;99.90
34766;DHT22;20984;43.508;1.504;2023-07-31T06:30:57;18.10;99.90
34766;DHT22;20984;43.508;1.504;2023-07-31T06:33:23;18.10;99.90
34766;DHT22;20984;43.508;1.504;2023-07-31T06:35:49;18.20;99.90
34766;DHT22;20984;43.508;1.504;2023-07-31T06:38:14;18.30;99.90
34766;DHT22;20984;43.508;1.504;2023-07-31T06:40:40;18.40;99.90
34766;DHT22;20984;43.508;1.504;2023-07-31T06:43:06;18.40;99.90
34766;DHT22;20984;43.508;1.504;2023-07-31T06:45:34;18.40;99.90
34766;DHT22;20984;43.508;1.504;2023-07-31T06:48:01;18.50;99.90
34766;DHT22;20984;43.508;1.504;2023-07-31T06:50:31;18.40;99.90
34766;DHT22;20984;43.508;1.504;2023-07-31T06:52:57;18.50;99.90
34766;DHT22;20984;43.508;1.504;2023-07-31T06:55:23;18.60;99.90
34766;DHT22;20984;43.508;1.504;2023-07-31T06:57:51;18.60;99.90
34766;DHT22;20984;43.508;1.504;2023-07-31T07:00:18;18.70;99.90
34766;DHT22;20984;43.508;1.504;2023-07-31T07:02:44;18.70;99.90
34766;DHT22;20984;43.508;1.504;2023-07-31T07:05:09;18.80;99.90
34766;DHT22;20984;43.508;1.504;2023-07-31T07:07:35;18.90;99.90
34766;DHT22;20984;43.508;1.504;2023-07-31T07:10:01;19.00;99.90
34766;DHT22;20984;43.508;1.504;2023-07-31T07:12:32;19.10;99.90
34766;DHT22;20984;43.508;1.504;2023-07-31T07:14:59;19.20;99.90
34766;DHT22;20984;43.508;1.504;2023-07-31T07:17:28;19.30;99.90
34766;DHT22;20984;43.508;1.504;2023-07-31T07:19:58;19.40;99.90
34766;DHT22;20984;43.508;1.504;2023-07-31T07:22:24;19.50;99.90
34766;DHT22;20984;43.508;1.504;2023-07-31T07:24:50;19.50;99.90
34766;DHT22;20984;43.508;1.504;2023-07-31T07:27:16;19.60;99.90
34766;DHT22;20984;43.508;1.504;2023-07-31T07:29:41;19.60;99.90
34766;DHT22;20984;43.508;1.504;2023-07-31T07:32:07;19.60;99.90
34766;DHT22;20984;43.508;1.504;2023-07-31T07:34:33;19.60;99.90
34766;DHT22;20984;43.508;1.504;2023-07-31T07:36:58;19.70;99.90
34766;DHT22;20984;43.508;1.504;2023-07-31T07:39:24;19.70;99.90
34766;DHT22;20984;43.508;1.504;2023-07-31T07:41:50;19.90;99.90
34766;DHT22;20984;43.508;1.504;2023-07-31T07:44:16;19.90;99.90
34766;DHT22;20984;43.508;1.504;2023-07-31T07:46:41;20.00;99.90
34766;DHT22;20984;43.508;1.504;2023-07-31T07:49:07;20.10;99.90
34766;DHT22;20984;43.508;1.504;2023-07-31T07:51:33;20.20;99.90
34766;DHT22;20984;43.508;1.504;2023-07-31T07:53:59;20.30;99.90
34766;DHT22;20984;43.508;1.504;2023-07-31T07:56:26;20.40;99.90
34766;DHT22;20984;43.508;1.504;2023-07-31T07:58:53;20.50;99.90
34766;DHT22;20984;43.508;1.504;2023-07-31T08:01:18;20.50;99.90
34766;DHT22;20984;43.508;1.504;2023-07-31T08:03:44;20.40;99.90
34766;DHT22;20984;43.508;1.504;2023-07-31T08:06:10;20.40;99.90
34766;DHT22;20984;43.508;1.504;2023-07-31T08:08:36;20.50;99.90
34766;DHT22;20984;43.508;1.504;2023-07-31T08:11:02;20.60;99.90
34766;DHT22;20984;43.508;1.504;2023-07-31T08:13:28;20.60;99.90
34766;DHT22;20984;43.508;1.504;2023-07-31T08:15:54;20.70;99.90
34766;DHT22;20984;43.508;1.504;2023-07-31T08:18:20;20.70;99.90
34766;DHT22;20984;43.508;1.504;2023-07-31T08:20:46;20.70;99.90
34766;DHT22;20984;43.508;1.504;2023-07-31T08:23:12;20.80;99.90
34766;DHT22;20984;43.508;1.504;2023-07-31T08:25:38;20.90;99.90
34766;DHT22;20984;43.508;1.504;2023-07-31T08:28:04;21.00;99.90
34766;DHT22;20984;43.508;1.504;2023-07-31T08:30:30;21.10;99.90
34766;DHT22;20984;43.508;1.504;2023-07-31T08:32:56;21.20;99.90
34766;DHT22;20984;43.508;1.504;2023-07-31T08:35:22;21.10;99.90
34766;DHT22;20984;43.508;1.504;2023-07-31T08:37:48;21.20;99.90
34766;DHT22;20984;43.508;1.504;2023-07-31T08:40:13;21.30;99.90
34766;DHT22;20984;43.508;1.504;2023-07-31T08:42:49;21.40;99.90
34766;DHT22;20984;43.508;1.504;2023-07-31T08:45:17;21.40;99.90
34766;DHT22;20984;43.508;1.504;2023-07-31T08:47:50;21.50;99.90
34766;DHT22;20984;43.508;1.504;2023-07-31T08:50:18;21.50;99.90
34766;DHT22;20984;43.508;1.504;2023-07-31T08:52:45;21.60;99.90
34766;DHT22;20984;43.508;1.504;2023-07-31T08:55:11;21.70;99.90
34766;DHT22;20984;43.508;1.504;2023-07-31T08:57:37;21.80;99.90
34766;DHT22;20984;43.508;1.504;2023-07-31T09:00:07;21.90;99.90
34766;DHT22;20984;43.508;1.504;2023-07-31T09:05:14;22.10;99.90
34766;DHT22;20984;43.508;1.504;2023-07-31T09:07:41;22.10;99.90
34766;DHT22;20984;43.508;1.504;2023-07-31T09:10:08;22.20;99.90
34766;DHT22;20984;43.508;1.504;2023-07-31T09:12:34;22.30;99.90
34766;DHT22;20984;43.508;1.504;2023-07-31T09:15:00;22.30;99.90
34766;DHT22;20984;43.508;1.504;2023-07-31T09:17:30;22.40;99.90
34766;DHT22;20984;43.508;1.504;2023-07-31T09:19:57;22.50;99.90
34766;DHT22;20984;43.508;1.504;2023-07-31T09:22:42;22.40;99.90
34766;DHT22;20984;43.508;1.504;2023-07-31T09:27:57;22.50;99.90
34766;DHT22;20984;43.508;1.504;2023-07-31T09:30:24;22.70;99.90
34766;DHT22;20984;43.508;1.504;2023-07-31T09:32:51;22.90;99.90
34766;DHT22;20984;43.508;1.504;2023-07-31T09:35:28;22.90;99.90
34766;DHT22;20984;43.508;1.504;2023-07-31T09:37:56;23.10;99.90
34766;DHT22;20984;43.508;1.504;2023-07-31T09:40:26;23.10;99.90
34766;DHT22;20984;43.508;1.504;2023-07-31T09:42:56;23.20;99.90
34766;DHT22;20984;43.508;1.504;2023-07-31T09:45:23;23.20;99.90
34766;DHT22;20984;43.508;1.504;2023-07-31T09:47:49;23.10;99.90
34766;DHT22;20984;43.508;1.504;2023-07-31T09:50:15;23.20;99.90
34766;DHT22;20984;43.508;1.504;2023-07-31T09:52:43;23.20;99.90
34766;DHT22;20984;43.508;1.504;2023-07-31T09:55:10;23.20;99.90
34766;DHT22;20984;43.508;1.504;2023-07-31T09:57:47;23.30;99.90
34766;DHT22;20984;43.508;1.504;2023-07-31T10:00:15;23.40;99.90
34766;DHT22;20984;43.508;1.504;2023-07-31T10:02:42;23.50;99.90
34766;DHT22;20984;43.508;1.504;2023-07-31T10:05:13;23.70;99.90
34766;DHT22;20984;43.508;1.504;2023-07-31T10:07:42;23.80;99.90
34766;DHT22;20984;43.508;1.504;2023-07-31T10:10:08;23.90;99.90
34766;DHT22;20984;43.508;1.504;2023-07-31T10:12:37;23.90;99.90
34766;DHT22;20984;43.508;1.504;2023-07-31T10:15:04;23.70;99.90
34766;DHT22;20984;43.508;1.504;2023-07-31T10:17:30;23.50;99.90
34766;DHT22;20984;43.508;1.504;2023-07-31T10:19:58;23.70;99.90
34766;DHT22;20984;43.508;1.504;2023-07-31T10:22:26;23.90;99.90
34766;DHT22;20984;43.508;1.504;2023-07-31T10:24:54;24.00;99.90
34766;DHT22;20984;43.508;1.504;2023-07-31T10:27:20;23.90;99.90
34766;DHT22;20984;43.508;1.504;2023-07-31T10:29:47;23.90;99.90
34766;DHT22;20984;43.508;1.504;2023-07-31T10:32:15;24.00;99.90
34766;DHT22;20984;43.508;1.504;2023-07-31T10:34:42;24.10;99.90
34766;DHT22;20984;43.508;1.504;2023-07-31T10:40:38;24.00;99.90
34766;DHT22;20984;43.508;1.504;2023-07-31T10:42:53;23.80;99.90
34766;DHT22;20984;43.508;1.504;2023-07-31T10:48:03;23.80;99.90
34766;DHT22;20984;43.508;1.504;2023-07-31T10:50:30;24.00;99.90
34766;DHT22;20984;43.508;1.504;2023-07-31T10:52:58;24.10;99.90
34766;DHT22;20984;43.508;1.504;2023-07-31T10:55:38;24.40;99.90
34766;DHT22;20984;43.508;1.504;2023-07-31T10:58:13;24.40;99.90
34766;DHT22;20984;43.508;1.504;2023-07-31T11:00:41;24.50;99.90
34766;DHT22;20984;43.508;1.504;2023-07-31T11:03:10;24.40;99.90
34766;DHT22;20984;43.508;1.504;2023-07-31T11:06:03;24.30;99.90
34766;DHT22;20984;43.508;1.504;2023-07-31T11:08:33;24.20;99.90
34766;DHT22;20984;43.508;1.504;2023-07-31T11:16:17;24.60;99.90
34766;DHT22;20984;43.508;1.504;2023-07-31T11:18:44;24.80;99.90
34766;DHT22;20984;43.508;1.504;2023-07-31T11:21:19;24.90;99.90
34766;DHT22;20984;43.508;1.504;2023-07-31T11:23:49;25.00;99.90
34766;DHT22;20984;43.508;1.504;2023-07-31T11:26:16;25.10;99.90
34766;DHT22;20984;43.508;1.504;2023-07-31T11:28:42;25.20;99.90
34766;DHT22;20984;43.508;1.504;2023-07-31T11:31:10;25.10;99.90
34766;DHT22;20984;43.508;1.504;2023-07-31T11:33:36;25.00;99.90
34766;DHT22;20984;43.508;1.504;2023-07-31T11:36:02;24.80;99.90
34766;DHT22;20984;43.508;1.504;2023-07-31T11:38:37;25.00;99.90
34766;DHT22;20984;43.508;1.504;2023-07-31T11:41:04;24.90;99.90
34766;DHT22;20984;43.508;1.504;2023-07-31T11:43:30;24.90;99.90
34766;DHT22;20984;43.508;1.504;2023-07-31T11:45:58;25.00;99.90
34766;DHT22;20984;43.508;1.504;2023-07-31T11:48:25;25.20;99.90
34766;DHT22;20984;43.508;1.504;2023-07-31T11:50:59;25.30;99.90
34766;DHT22;20984;43.508;1.504;2023-07-31T11:53:29;25.30;99.90
34766;DHT22;20984;43.508;1.504;2023-07-31T11:55:58;25.20;99.90
34766;DHT22;20984;43.508;1.504;2023-07-31T11:58:24;25.20;99.90
34766;DHT22;20984;43.508;1.504;2023-07-31T12:00:51;25.10;99.90
34766;DHT22;20984;43.508;1.504;2023-07-31T12:03:18;25.20;99.90
34766;DHT22;20984;43.508;1.504;2023-07-31T12:05:43;25.30;99.90
34766;DHT22;20984;43.508;1.504;2023-07-31T12:08:11;25.50;99.90
34766;DHT22;20984;43.508;1.504;2023-07-31T12:10:40;25.70;99.90
34766;DHT22;20984;43.508;1.504;2023-07-31T12:13:11;25.60;99.90
34766;DHT22;20984;43.508;1.504;2023-07-31T12:15:44;25.50;99.90
34766;DHT22;20984;43.508;1.504;2023-07-31T12:18:15;25.70;99.90
34766;DHT22;20984;43.508;1.504;2023-07-31T12:20:48;25.80;99.90
34766;DHT22;20984;43.508;1.504;2023-07-31T12:23:22;26.00;99.90
34766;DHT22;20984;43.508;1.504;2023-07-31T12:26:01;25.90;99.90
34766;DHT22;20984;43.508;1.504;2023-07-31T12:28:26;26.00;99.90
34766;DHT22;20984;43.508;1.504;2023-07-31T12:30:57;26.20;99.90
34766;DHT22;20984;43.508;1.504;2023-07-31T12:33:23;26.20;99.90
34766;DHT22;20984;43.508;1.504;2023-07-31T12:35:49;26.30;99.10
34766;DHT22;20984;43.508;1.504;2023-07-31T12:38:15;26.30;99.10
34766;DHT22;20984;43.508;1.504;2023-07-31T12:40:41;26.40;99.40
34766;DHT22;20984;43.508;1.504;2023-07-31T12:43:08;26.40;99.90
34766;DHT22;20984;43.508;1.504;2023-07-31T12:45:34;26.50;99.30
34766;DHT22;20984;43.508;1.504;2023-07-31T12:48:01;26.60;99.60
34766;DHT22;20984;43.508;1.504;2023-07-31T12:50:27;26.60;98.60
34766;DHT22;20984;43.508;1.504;2023-07-31T12:52:53;26.60;99.80
34766;DHT22;20984;43.508;1.504;2023-07-31T12:55:21;26.80;99.30
34766;DHT22;20984;43.508;1.504;2023-07-31T12:57:47;26.90;99.30
34766;DHT22;20984;43.508;1.504;2023-07-31T13:00:13;27.00;97.90
34766;DHT22;20984;43.508;1.504;2023-07-31T13:02:39;27.00;97.20
34766;DHT22;20984;43.508;1.504;2023-07-31T13:05:04;27.10;96.60
34766;DHT22;20984;43.508;1.504;2023-07-31T13:07:30;27.00;96.60
34766;DHT22;20984;43.508;1.504;2023-07-31T13:09:56;27.20;96.40
34766;DHT22;20984;43.508;1.504;2023-07-31T13:12:21;27.50;98.50
34766;DHT22;20984;43.508;1.504;2023-07-31T13:14:47;27.50;95.80
34766;DHT22;20984;43.508;1.504;2023-07-31T13:17:13;27.40;94.40
34766;DHT22;20984;43.508;1.504;2023-07-31T13:19:38;27.30;93.30
34766;DHT22;20984;43.508;1.504;2023-07-31T13:22:04;27.40;94.70
34766;DHT22;20984;43.508;1.504;2023-07-31T13:24:30;27.40;94.20
34766;DHT22;20984;43.508;1.504;2023-07-31T13:26:56;27.40;94.10
34766;DHT22;20984;43.508;1.504;2023-07-31T13:29:22;27.40;93.50
34766;DHT22;20984;43.508;1.504;2023-07-31T13:31:48;27.50;96.10
34766;DHT22;20984;43.508;1.504;2023-07-31T13:34:14;27.80;93.60
34766;DHT22;20984;43.508;1.504;2023-07-31T13:36:40;27.90;94.00
34766;DHT22;20984;43.508;1.504;2023-07-31T13:39:07;27.90;91.10
34766;DHT22;20984;43.508;1.504;2023-07-31T13:41:33;27.80;91.40
34766;DHT22;20984;43.508;1.504;2023-07-31T13:43:58;27.80;91.80
34766;DHT22;20984;43.508;1.504;2023-07-31T13:46:24;27.90;91.30
34766;DHT22;20984;43.508;1.504;2023-07-31T13:48:51;28.10;91.60
34766;DHT22;20984;43.508;1.504;2023-07-31T13:51:16;28.10;91.90
34766;DHT22;20984;43.508;1.504;2023-07-31T13:53:42;28.20;91.40
34766;DHT22;20984;43.508;1.504;2023-07-31T13:56:08;28.30;92.30
34766;DHT22;20984;43.508;1.504;2023-07-31T13:58:33;28.30;91.30
34766;DHT22;20984;43.508;1.504;2023-07-31T14:00:59;28.30;90.50
34766;DHT22;20984;43.508;1.504;2023-07-31T14:03:25;28.20;90.70
34766;DHT22;20984;43.508;1.504;2023-07-31T14:05:52;28.30;92.10
34766;DHT22;20984;43.508;1.504;2023-07-31T14:08:18;28.70;92.10
34766;DHT22;20984;43.508;1.504;2023-07-31T14:10:43;28.70;90.00
34766;DHT22;20984;43.508;1.504;2023-07-31T14:13:09;28.70;90.10
34766;DHT22;20984;43.508;1.504;2023-07-31T14:15:35;28.90;92.30
34766;DHT22;20984;43.508;1.504;2023-07-31T14:18:01;29.00;89.90
34766;DHT22;20984;43.508;1.504;2023-07-31T14:20:28;29.00;89.10
34766;DHT22;20984;43.508;1.504;2023-07-31T14:22:53;29.00;90.10
34766;DHT22;20984;43.508;1.504;2023-07-31T14:25:19;29.00;90.30
34766;DHT22;20984;43.508;1.504;2023-07-31T14:27:45;29.20;90.00
34766;DHT22;20984;43.508;1.504;2023-07-31T14:30:11;29.20;90.20
34766;DHT22;20984;43.508;1.504;2023-07-31T14:32:37;29.60;91.20
34766;DHT22;20984;43.508;1.504;2023-07-31T14:35:03;29.60;88.30
34766;DHT22;20984;43.508;1.504;2023-07-31T14:37:37;29.90;88.60
34766;DHT22;20984;43.508;1.504;2023-07-31T14:40:03;29.80;87.70
34766;DHT22;20984;43.508;1.504;2023-07-31T14:42:29;29.60;88.20
34766;DHT22;20984;43.508;1.504;2023-07-31T14:44:55;30.10;87.60
34766;DHT22;20984;43.508;1.504;2023-07-31T14:47:20;30.90;86.00
34766;DHT22;20984;43.508;1.504;2023-07-31T14:49:46;31.60;80.20
34766;DHT22;20984;43.508;1.504;2023-07-31T14:52:12;32.10;78.30
34766;DHT22;20984;43.508;1.504;2023-07-31T14:54:37;33.10;77.60
34766;DHT22;20984;43.508;1.504;2023-07-31T14:57:03;33.50;74.90
34766;DHT22;20984;43.508;1.504;2023-07-31T14:59:29;34.20;74.40
34766;DHT22;20984;43.508;1.504;2023-07-31T15:01:55;34.80;72.60
34766;DHT22;20984;43.508;1.504;2023-07-31T15:04:20;34.80;71.90
34766;DHT22;20984;43.508;1.504;2023-07-31T15:06:47;34.60;69.00
34766;DHT22;20984;43.508;1.504;2023-07-31T15:09:13;34.60;71.00
34766;DHT22;20984;43.508;1.504;2023-07-31T15:11:38;35.70;71.60
34766;DHT22;20984;43.508;1.504;2023-07-31T15:14:04;36.20;65.60
34766;DHT22;20984;43.508;1.504;2023-07-31T15:16:29;35.90;64.30
34766;DHT22;20984;43.508;1.504;2023-07-31T15:18:57;35.20;66.10
34766;DHT22;20984;43.508;1.504;2023-07-31T15:21:22;34.80;66.20
34766;DHT22;20984;43.508;1.504;2023-07-31T15:23:48;34.90;66.70
34766;DHT22;20984;43.508;1.504;2023-07-31T15:26:14;35.40;64.80
34766;DHT22;20984;43.508;1.504;2023-07-31T15:28:39;35.70;63.10
34766;DHT22;20984;43.508;1.504;2023-07-31T15:31:05;36.20;63.70
34766;DHT22;20984;43.508;1.504;2023-07-31T15:33:31;36.00;61.90
34766;DHT22;20984;43.508;1.504;2023-07-31T15:35:56;36.00;63.90
34766;DHT22;20984;43.508;1.504;2023-07-31T15:38:23;35.60;61.80
34766;DHT22;20984;43.508;1.504;2023-07-31T15:40:49;36.10;62.30
34766;DHT22;20984;43.508;1.504;2023-07-31T15:43:19;36.20;60.40
34766;DHT22;20984;43.508;1.504;2023-07-31T15:45:46;36.30;61.20
34766;DHT22;20984;43.508;1.504;2023-07-31T15:48:11;36.10;60.20